• Join FlightAware (Why Join?)
  • Login
  • US Flag GB Flag 
09:49 EDT


 

Airport Tracker/Info


-or-


 

Live Flight TrackerFlight Track Log ✈ FIN666 ✈ 09-Jun-2014 ✈ EKCH / CPH - EFHK / HEL

Flight Track Log - Related Links

Times and Time Zones

All times are in EDT time to prevent confusion due to time zone crossing. See the FIN666 flight status page for this flight to view local times or setup timezone preferences in your user account.

Time Position Orientation Groundspeed Altitude Reporting Facility
EDT Latitude Longitude Course Direction KTS MPH feet Rate Location/Type
07:28 55.8272 13.0881 49° Northeast  Level Estimated
07:29 55.8966 13.2332 49° Northeast  Level Estimated
07:30 55.9658 13.3788 50° Northeast  Level Estimated
07:31 56.0455 13.5474 50° Northeast  Level Estimated
07:32 56.1249 13.7168 50° Northeast  Level Estimated
07:33 56.2041 13.8868 50° Northeast  Level Estimated
07:34 56.2831 14.0576 50° Northeast  Level Estimated
07:35 56.3618 14.2290 50° Northeast  Level Estimated
07:36 56.4403 14.4012 50° Northeast  Level Estimated
07:37 56.5186 14.5741 51° Northeast  Level Estimated
07:38 56.5966 14.7477 51° Northeast  Level Estimated
07:39 56.6744 14.9220 51° Northeast  Level Estimated
07:40 56.7519 15.0970 51° Northeast  Level Estimated
07:41 56.8292 15.2727 51° Northeast  Level Estimated
07:42 56.9063 15.4492 51° Northeast  Level Estimated
07:43 56.9831 15.6264 51° Northeast  Level Estimated
07:44 57.0596 15.8043 52° Northeast  Level Estimated
07:45 57.1336 15.9777 52° Northeast  Level Estimated
07:46 57.2074 16.1517 52° Northeast  Level Estimated
07:47 57.2809 16.3264 52° Northeast  Level Estimated
07:48 57.3542 16.5018 52° Northeast  Level Estimated
07:49 57.4272 16.6779 52° Northeast  Level Estimated
07:50 57.5000 16.8547 52° Northeast  Level Estimated
07:51 57.5726 17.0322 53° Northeast  Level Estimated
07:52 57.6449 17.2105 53° Northeast  Level Estimated
07:53 57.7169 17.3894 53° Northeast  Level Estimated
07:54 57.7887 17.5691 53° Northeast  Level Estimated
07:55 57.8603 17.7494 53° Northeast  Level Estimated
07:56 57.9316 17.9305 53° Northeast  Level Estimated
07:57 58.0026 18.1123 54° Northeast  Level Estimated
07:58 58.0733 18.2948 54° Northeast  Level Estimated
07:59 58.1438 18.4781 54° Northeast  Level Estimated
08:00 58.2141 18.6621 54° Northeast  Level Estimated
08:01 58.2841 18.8468 54° Northeast  Level Estimated
08:02 58.3538 19.0322 54° Northeast  Level Estimated
08:03 58.4232 19.2183 54° Northeast  Level Estimated
08:04 58.4924 19.4052 55° Northeast  Level Estimated
08:05 58.5612 19.5929 55° Northeast  Level Estimated
08:06 58.6299 19.7812 55° Northeast  Level Estimated
08:07 58.6982 19.9704 55° Northeast  Level Estimated
08:08 58.7663 20.1602 55° Northeast  Level Estimated
08:09 58.8341 20.3508 55° Northeast  Level Estimated
08:10 58.9016 20.5422 56° Northeast  Level Estimated
08:11 58.9688 20.7342 56° Northeast  Level Estimated
08:12 59.0357 20.9271 56° Northeast  Level Estimated
08:13 59.1023 21.1207 56° Northeast  Level Estimated
08:14 59.1687 21.3150 56° Northeast  Level Estimated
08:15 59.2348 21.5101 56° Northeast  Level Estimated
08:16 59.3005 21.7059 57° Northeast  Level Estimated
08:17 59.3660 21.9026 57° Northeast  Level Estimated
08:18 59.4312 22.0999 57° Northeast  Level Estimated
08:19 59.4961 22.2980 57° Northeast  Level Estimated
08:20 59.5606 22.4969 57° Northeast  Level Estimated
08:21 59.6249 22.6966 57° Northeast  Level Estimated
08:22 59.6889 22.8970 58° Northeast  Level Estimated
08:23 59.7535 23.1012 58° Northeast  Level Estimated
08:24 59.8178 23.3063 58° Northeast  Level Estimated
08:25 59.8818 23.5121 58° Northeast  Level Estimated
08:26 59.9455 23.7187 58° Northeast  Level Estimated
08:27 60.0088 23.9261 59° Northeast  Level Estimated
08:28 60.0718 24.1343 59° Northeast  Level Estimated
08:29 60.1345 24.3433 59° Northeast  Level Estimated
08:30 60.1969 24.5530 59° Northeast  Level Estimated
08:31 60.2589 24.7636 59° Northeast  Level Estimated
08:32 60.3172 24.9633 59° Northeast  Level Estimated
08:33 60.3172 24.9633 North  Level Estimated
08:34 60.3172 24.9633 North  Level Estimated
08:35 60.3172 24.9633 North  Level Estimated
08:36 60.3172 24.9633 North  Level Estimated
08:37 60.3172 24.9633 North  Level Estimated
08:38 60.3172 24.9633 North  Level Estimated
08:39 60.3172 24.9633 North  Level Estimated
08:40 60.3172 24.9633 North  Level Estimated
08:41 60.3172 24.9633 North  Level Estimated
08:42 60.3172 24.9633 North  Level Estimated
08:43 60.3172 24.9633 North  Level Estimated
08:44 60.3172 24.9633 North  Level Estimated